sensor_id;sensor_type;location;lat;lon;timestamp;temperature;humidity
36352;DHT22;22382;44.768;17.206;2024-03-29T00:01:24;17.30;70.90
36352;DHT22;22382;44.768;17.206;2024-03-29T00:03:51;17.30;71.10
36352;DHT22;22382;44.768;17.206;2024-03-29T00:06:19;17.30;70.80
36352;DHT22;22382;44.768;17.206;2024-03-29T00:08:45;17.20;71.20
36352;DHT22;22382;44.768;17.206;2024-03-29T00:11:11;17.20;70.80
36352;DHT22;22382;44.768;17.206;2024-03-29T00:13:37;17.40;70.30
36352;DHT22;22382;44.768;17.206;2024-03-29T00:16:03;17.40;70.60
36352;DHT22;22382;44.768;17.206;2024-03-29T00:18:30;17.30;70.70
36352;DHT22;22382;44.768;17.206;2024-03-29T00:20:56;17.30;70.60
36352;DHT22;22382;44.768;17.206;2024-03-29T00:23:22;17.50;70.20
36352;DHT22;22382;44.768;17.206;2024-03-29T00:25:48;17.50;70.00
36352;DHT22;22382;44.768;17.206;2024-03-29T00:28:14;17.50;70.20
36352;DHT22;22382;44.768;17.206;2024-03-29T00:30:41;17.70;69.60
36352;DHT22;22382;44.768;17.206;2024-03-29T00:33:07;17.70;69.40
36352;DHT22;22382;44.768;17.206;2024-03-29T00:35:33;17.70;69.70
36352;DHT22;22382;44.768;17.206;2024-03-29T00:37:59;17.70;69.60
36352;DHT22;22382;44.768;17.206;2024-03-29T00:40:25;17.70;69.60
36352;DHT22;22382;44.768;17.206;2024-03-29T00:42:51;17.70;69.50
36352;DHT22;22382;44.768;17.206;2024-03-29T00:45:17;17.80;69.90
36352;DHT22;22382;44.768;17.206;2024-03-29T00:47:43;17.90;68.70
36352;DHT22;22382;44.768;17.206;2024-03-29T00:50:10;18.00;68.60
36352;DHT22;22382;44.768;17.206;2024-03-29T00:52:36;17.90;68.60
36352;DHT22;22382;44.768;17.206;2024-03-29T00:55:02;18.00;68.70
36352;DHT22;22382;44.768;17.206;2024-03-29T00:57:29;18.00;68.60
36352;DHT22;22382;44.768;17.206;2024-03-29T00:59:55;18.00;68.50
36352;DHT22;22382;44.768;17.206;2024-03-29T01:02:23;17.90;68.80
36352;DHT22;22382;44.768;17.206;2024-03-29T01:04:52;17.90;68.70
36352;DHT22;22382;44.768;17.206;2024-03-29T01:07:18;17.80;69.00
36352;DHT22;22382;44.768;17.206;2024-03-29T01:09:44;17.70;69.40
36352;DHT22;22382;44.768;17.206;2024-03-29T01:12:11;17.60;69.90
36352;DHT22;22382;44.768;17.206;2024-03-29T01:14:37;17.50;70.30
36352;DHT22;22382;44.768;17.206;2024-03-29T01:17:03;17.40;70.70
36352;DHT22;22382;44.768;17.206;2024-03-29T01:19:30;17.40;70.70
36352;DHT22;22382;44.768;17.206;2024-03-29T01:21:56;17.40;71.00
36352;DHT22;22382;44.768;17.206;2024-03-29T01:24:22;17.40;70.50
36352;DHT22;22382;44.768;17.206;2024-03-29T01:26:49;17.40;70.90
36352;DHT22;22382;44.768;17.206;2024-03-29T01:29:15;17.40;70.60
36352;DHT22;22382;44.768;17.206;2024-03-29T01:31:42;17.30;71.20
36352;DHT22;22382;44.768;17.206;2024-03-29T01:34:08;17.30;71.20
36352;DHT22;22382;44.768;17.206;2024-03-29T01:36:34;17.30;71.10
36352;DHT22;22382;44.768;17.206;2024-03-29T01:39:00;17.30;70.90
36352;DHT22;22382;44.768;17.206;2024-03-29T01:41:27;17.30;71.00
36352;DHT22;22382;44.768;17.206;2024-03-29T01:43:54;17.30;70.90
36352;DHT22;22382;44.768;17.206;2024-03-29T01:46:23;17.40;70.60
36352;DHT22;22382;44.768;17.206;2024-03-29T01:48:51;17.40;70.60
36352;DHT22;22382;44.768;17.206;2024-03-29T01:51:17;17.40;70.70
36352;DHT22;22382;44.768;17.206;2024-03-29T01:53:44;17.50;70.50
36352;DHT22;22382;44.768;17.206;2024-03-29T01:56:11;17.50;70.20
36352;DHT22;22382;44.768;17.206;2024-03-29T01:58:38;17.40;71.20
36352;DHT22;22382;44.768;17.206;2024-03-29T02:01:05;17.30;71.10
36352;DHT22;22382;44.768;17.206;2024-03-29T02:03:33;17.20;71.80
36352;DHT22;22382;44.768;17.206;2024-03-29T02:05:59;17.10;71.70
36352;DHT22;22382;44.768;17.206;2024-03-29T02:08:28;17.00;71.60
36352;DHT22;22382;44.768;17.206;2024-03-29T02:10:54;17.00;71.90
36352;DHT22;22382;44.768;17.206;2024-03-29T02:13:22;16.90;72.50
36352;DHT22;22382;44.768;17.206;2024-03-29T02:15:48;16.80;72.70
36352;DHT22;22382;44.768;17.206;2024-03-29T02:18:14;16.70;73.00
36352;DHT22;22382;44.768;17.206;2024-03-29T02:20:40;16.60;73.30
36352;DHT22;22382;44.768;17.206;2024-03-29T02:23:11;16.40;73.70
36352;DHT22;22382;44.768;17.206;2024-03-29T02:25:38;16.30;74.20
36352;DHT22;22382;44.768;17.206;2024-03-29T02:28:04;16.30;74.70
36352;DHT22;22382;44.768;17.206;2024-03-29T02:30:31;16.10;75.10
36352;DHT22;22382;44.768;17.206;2024-03-29T02:32:58;16.10;75.50
36352;DHT22;22382;44.768;17.206;2024-03-29T02:35:24;16.00;75.80
36352;DHT22;22382;44.768;17.206;2024-03-29T02:37:51;16.00;76.20
36352;DHT22;22382;44.768;17.206;2024-03-29T02:40:18;15.90;76.50
36352;DHT22;22382;44.768;17.206;2024-03-29T02:42:44;15.90;76.50
36352;DHT22;22382;44.768;17.206;2024-03-29T02:45:10;15.80;76.40
36352;DHT22;22382;44.768;17.206;2024-03-29T02:47:36;15.80;76.50
36352;DHT22;22382;44.768;17.206;2024-03-29T02:50:03;15.80;76.80
36352;DHT22;22382;44.768;17.206;2024-03-29T02:52:29;15.80;76.80
36352;DHT22;22382;44.768;17.206;2024-03-29T02:54:55;15.80;77.10
36352;DHT22;22382;44.768;17.206;2024-03-29T02:57:21;15.70;77.40
36352;DHT22;22382;44.768;17.206;2024-03-29T02:59:47;15.70;78.00
36352;DHT22;22382;44.768;17.206;2024-03-29T03:02:13;15.60;78.40
36352;DHT22;22382;44.768;17.206;2024-03-29T03:04:39;15.50;78.80
36352;DHT22;22382;44.768;17.206;2024-03-29T03:07:05;15.50;78.90
36352;DHT22;22382;44.768;17.206;2024-03-29T03:09:52;15.50;79.20
36352;DHT22;22382;44.768;17.206;2024-03-29T03:12:36;15.40;79.60
36352;DHT22;22382;44.768;17.206;2024-03-29T03:15:02;15.30;79.70
36352;DHT22;22382;44.768;17.206;2024-03-29T03:17:30;15.20;80.40
36352;DHT22;22382;44.768;17.206;2024-03-29T03:19:57;15.30;80.60
36352;DHT22;22382;44.768;17.206;2024-03-29T03:22:24;15.20;80.50
36352;DHT22;22382;44.768;17.206;2024-03-29T03:24:50;15.20;80.90
36352;DHT22;22382;44.768;17.206;2024-03-29T03:27:16;15.10;81.00
36352;DHT22;22382;44.768;17.206;2024-03-29T03:29:42;15.10;81.30
36352;DHT22;22382;44.768;17.206;2024-03-29T03:32:08;15.10;81.60
36352;DHT22;22382;44.768;17.206;2024-03-29T03:34:35;15.10;81.70
36352;DHT22;22382;44.768;17.206;2024-03-29T03:37:01;15.10;81.80
36352;DHT22;22382;44.768;17.206;2024-03-29T03:39:27;15.10;82.10
36352;DHT22;22382;44.768;17.206;2024-03-29T03:41:53;15.00;82.10
36352;DHT22;22382;44.768;17.206;2024-03-29T03:44:19;14.90;82.50
36352;DHT22;22382;44.768;17.206;2024-03-29T03:46:47;14.80;82.60
36352;DHT22;22382;44.768;17.206;2024-03-29T03:49:13;14.70;83.30
36352;DHT22;22382;44.768;17.206;2024-03-29T03:51:39;14.60;83.30
36352;DHT22;22382;44.768;17.206;2024-03-29T03:54:05;14.60;83.70
36352;DHT22;22382;44.768;17.206;2024-03-29T03:56:32;14.60;84.10
36352;DHT22;22382;44.768;17.206;2024-03-29T03:58:58;14.60;84.20
36352;DHT22;22382;44.768;17.206;2024-03-29T04:01:24;14.60;84.30
36352;DHT22;22382;44.768;17.206;2024-03-29T04:03:50;14.60;84.40
36352;DHT22;22382;44.768;17.206;2024-03-29T04:06:16;14.60;84.70
36352;DHT22;22382;44.768;17.206;2024-03-29T04:08:46;14.50;84.70
36352;DHT22;22382;44.768;17.206;2024-03-29T04:11:12;14.40;85.20
36352;DHT22;22382;44.768;17.206;2024-03-29T04:13:38;14.30;85.70
36352;DHT22;22382;44.768;17.206;2024-03-29T04:16:06;14.20;86.30
36352;DHT22;22382;44.768;17.206;2024-03-29T04:18:33;14.20;86.60
36352;DHT22;22382;44.768;17.206;2024-03-29T04:21:01;14.00;87.90
36352;DHT22;22382;44.768;17.206;2024-03-29T04:23:27;14.00;87.90
36352;DHT22;22382;44.768;17.206;2024-03-29T04:25:57;14.20;87.80
36352;DHT22;22382;44.768;17.206;2024-03-29T04:28:25;14.20;87.70
36352;DHT22;22382;44.768;17.206;2024-03-29T04:31:01;14.10;87.90
36352;DHT22;22382;44.768;17.206;2024-03-29T04:33:27;14.10;88.30
36352;DHT22;22382;44.768;17.206;2024-03-29T04:36:03;14.00;88.60
36352;DHT22;22382;44.768;17.206;2024-03-29T04:38:30;14.00;89.60
36352;DHT22;22382;44.768;17.206;2024-03-29T04:40:57;13.90;90.00
36352;DHT22;22382;44.768;17.206;2024-03-29T04:43:26;13.80;90.10
36352;DHT22;22382;44.768;17.206;2024-03-29T04:46:10;13.80;90.40
36352;DHT22;22382;44.768;17.206;2024-03-29T04:48:37;13.80;90.50
36352;DHT22;22382;44.768;17.206;2024-03-29T04:51:04;13.90;90.50
36352;DHT22;22382;44.768;17.206;2024-03-29T04:53:30;14.00;90.40
36352;DHT22;22382;44.768;17.206;2024-03-29T04:55:57;14.10;90.50
36352;DHT22;22382;44.768;17.206;2024-03-29T04:58:27;14.20;90.30
36352;DHT22;22382;44.768;17.206;2024-03-29T05:00:54;14.20;90.30
36352;DHT22;22382;44.768;17.206;2024-03-29T05:03:21;14.50;90.00
36352;DHT22;22382;44.768;17.206;2024-03-29T05:05:51;14.70;89.50
36352;DHT22;22382;44.768;17.206;2024-03-29T05:08:18;14.80;89.40
36352;DHT22;22382;44.768;17.206;2024-03-29T05:10:46;15.00;89.10
36352;DHT22;22382;44.768;17.206;2024-03-29T05:13:12;15.20;88.00
36352;DHT22;22382;44.768;17.206;2024-03-29T05:15:39;15.40;87.40
36352;DHT22;22382;44.768;17.206;2024-03-29T05:18:05;15.50;87.40
36352;DHT22;22382;44.768;17.206;2024-03-29T05:20:31;15.50;87.10
36352;DHT22;22382;44.768;17.206;2024-03-29T05:23:00;15.60;86.90
36352;DHT22;22382;44.768;17.206;2024-03-29T05:25:27;15.80;86.00
36352;DHT22;22382;44.768;17.206;2024-03-29T05:27:53;15.90;86.10
36352;DHT22;22382;44.768;17.206;2024-03-29T05:30:20;16.00;85.50
36352;DHT22;22382;44.768;17.206;2024-03-29T05:32:46;16.20;85.70
36352;DHT22;22382;44.768;17.206;2024-03-29T05:35:12;16.20;84.90
36352;DHT22;22382;44.768;17.206;2024-03-29T05:37:39;16.30;83.70
36352;DHT22;22382;44.768;17.206;2024-03-29T05:40:06;16.50;83.90
36352;DHT22;22382;44.768;17.206;2024-03-29T05:42:33;16.70;82.60
36352;DHT22;22382;44.768;17.206;2024-03-29T05:45:02;16.90;83.20
36352;DHT22;22382;44.768;17.206;2024-03-29T05:47:29;17.00;81.90
36352;DHT22;22382;44.768;17.206;2024-03-29T05:49:55;17.10;81.20
36352;DHT22;22382;44.768;17.206;2024-03-29T05:52:21;17.20;81.40
36352;DHT22;22382;44.768;17.206;2024-03-29T05:54:49;17.40;80.90
36352;DHT22;22382;44.768;17.206;2024-03-29T05:57:15;17.50;79.40
36352;DHT22;22382;44.768;17.206;2024-03-29T05:59:42;17.60;79.10
36352;DHT22;22382;44.768;17.206;2024-03-29T06:02:08;17.70;78.30
36352;DHT22;22382;44.768;17.206;2024-03-29T06:04:34;17.90;77.90
36352;DHT22;22382;44.768;17.206;2024-03-29T06:07:05;18.00;77.50
36352;DHT22;22382;44.768;17.206;2024-03-29T06:09:31;18.10;77.30
36352;DHT22;22382;44.768;17.206;2024-03-29T06:11:59;18.20;76.80
36352;DHT22;22382;44.768;17.206;2024-03-29T06:14:26;18.30;76.80
36352;DHT22;22382;44.768;17.206;2024-03-29T06:17:11;18.30;76.40
36352;DHT22;22382;44.768;17.206;2024-03-29T06:19:54;18.30;76.40
36352;DHT22;22382;44.768;17.206;2024-03-29T06:22:24;18.40;76.00
36352;DHT22;22382;44.768;17.206;2024-03-29T06:24:52;18.50;76.30
36352;DHT22;22382;44.768;17.206;2024-03-29T06:27:19;18.60;75.20
36352;DHT22;22382;44.768;17.206;2024-03-29T06:29:46;18.60;75.50
36352;DHT22;22382;44.768;17.206;2024-03-29T06:32:13;18.70;74.70
36352;DHT22;22382;44.768;17.206;2024-03-29T06:34:39;18.80;74.60
36352;DHT22;22382;44.768;17.206;2024-03-29T06:37:05;18.90;74.10
36352;DHT22;22382;44.768;17.206;2024-03-29T06:39:33;19.10;74.30
36352;DHT22;22382;44.768;17.206;2024-03-29T06:41:59;19.20;73.60
36352;DHT22;22382;44.768;17.206;2024-03-29T06:44:26;19.30;73.50
36352;DHT22;22382;44.768;17.206;2024-03-29T06:46:52;19.30;72.50
36352;DHT22;22382;44.768;17.206;2024-03-29T06:49:18;19.30;73.70
36352;DHT22;22382;44.768;17.206;2024-03-29T06:51:44;19.40;72.50
36352;DHT22;22382;44.768;17.206;2024-03-29T06:54:10;19.50;72.50
36352;DHT22;22382;44.768;17.206;2024-03-29T06:56:36;19.60;71.90
36352;DHT22;22382;44.768;17.206;2024-03-29T06:59:02;19.70;71.80
36352;DHT22;22382;44.768;17.206;2024-03-29T07:01:28;19.70;72.10
36352;DHT22;22382;44.768;17.206;2024-03-29T07:03:56;19.70;71.40
36352;DHT22;22382;44.768;17.206;2024-03-29T07:06:22;19.80;71.90
36352;DHT22;22382;44.768;17.206;2024-03-29T07:08:48;20.00;71.60
36352;DHT22;22382;44.768;17.206;2024-03-29T07:11:15;20.00;70.30
36352;DHT22;22382;44.768;17.206;2024-03-29T07:13:41;20.00;70.70
36352;DHT22;22382;44.768;17.206;2024-03-29T07:16:07;20.10;70.20
36352;DHT22;22382;44.768;17.206;2024-03-29T07:18:33;20.20;70.10
36352;DHT22;22382;44.768;17.206;2024-03-29T07:20:59;20.30;70.10
36352;DHT22;22382;44.768;17.206;2024-03-29T07:23:25;20.40;69.70
36352;DHT22;22382;44.768;17.206;2024-03-29T07:26:02;20.40;70.30
36352;DHT22;22382;44.768;17.206;2024-03-29T07:28:29;20.50;69.90
36352;DHT22;22382;44.768;17.206;2024-03-29T07:30:56;20.50;68.90
36352;DHT22;22382;44.768;17.206;2024-03-29T07:33:23;20.70;70.00
36352;DHT22;22382;44.768;17.206;2024-03-29T07:35:55;20.80;68.50
36352;DHT22;22382;44.768;17.206;2024-03-29T07:38:22;20.90;68.30
36352;DHT22;22382;44.768;17.206;2024-03-29T07:40:49;21.00;68.40
36352;DHT22;22382;44.768;17.206;2024-03-29T07:43:16;21.20;68.30
36352;DHT22;22382;44.768;17.206;2024-03-29T07:45:45;21.40;67.80
36352;DHT22;22382;44.768;17.206;2024-03-29T07:48:18;21.40;67.30
36352;DHT22;22382;44.768;17.206;2024-03-29T07:50:45;21.50;67.20
36352;DHT22;22382;44.768;17.206;2024-03-29T07:53:12;21.60;66.90
36352;DHT22;22382;44.768;17.206;2024-03-29T07:55:39;21.70;66.60
36352;DHT22;22382;44.768;17.206;2024-03-29T07:58:06;21.90;66.30
36352;DHT22;22382;44.768;17.206;2024-03-29T08:00:35;21.80;64.90
36352;DHT22;22382;44.768;17.206;2024-03-29T08:03:01;21.90;65.30
36352;DHT22;22382;44.768;17.206;2024-03-29T08:05:28;22.00;65.40
36352;DHT22;22382;44.768;17.206;2024-03-29T08:07:54;21.70;65.40
36352;DHT22;22382;44.768;17.206;2024-03-29T08:10:22;21.70;65.00
36352;DHT22;22382;44.768;17.206;2024-03-29T08:12:48;21.80;64.50
36352;DHT22;22382;44.768;17.206;2024-03-29T08:15:14;21.90;64.00
36352;DHT22;22382;44.768;17.206;2024-03-29T08:17:40;22.00;63.70
36352;DHT22;22382;44.768;17.206;2024-03-29T08:20:06;22.10;63.90
36352;DHT22;22382;44.768;17.206;2024-03-29T08:22:33;22.50;65.00
36352;DHT22;22382;44.768;17.206;2024-03-29T08:25:00;22.70;63.90
36352;DHT22;22382;44.768;17.206;2024-03-29T08:27:27;23.00;63.10
36352;DHT22;22382;44.768;17.206;2024-03-29T08:29:54;22.90;61.90
36352;DHT22;22382;44.768;17.206;2024-03-29T08:32:20;23.10;61.70
36352;DHT22;22382;44.768;17.206;2024-03-29T08:34:46;23.20;61.90
36352;DHT22;22382;44.768;17.206;2024-03-29T08:37:13;23.30;60.60
36352;DHT22;22382;44.768;17.206;2024-03-29T08:39:39;23.10;60.20
36352;DHT22;22382;44.768;17.206;2024-03-29T08:42:05;23.00;60.60
36352;DHT22;22382;44.768;17.206;2024-03-29T08:44:32;23.10;60.60
36352;DHT22;22382;44.768;17.206;2024-03-29T08:46:59;23.20;60.50
36352;DHT22;22382;44.768;17.206;2024-03-29T08:49:27;23.20;60.40
36352;DHT22;22382;44.768;17.206;2024-03-29T08:51:54;23.00;59.80
36352;DHT22;22382;44.768;17.206;2024-03-29T08:54:20;23.00;60.10
36352;DHT22;22382;44.768;17.206;2024-03-29T08:56:47;22.70;59.70
36352;DHT22;22382;44.768;17.206;2024-03-29T08:59:13;22.70;59.80
36352;DHT22;22382;44.768;17.206;2024-03-29T09:01:45;23.00;59.80
36352;DHT22;22382;44.768;17.206;2024-03-29T09:04:11;23.10;60.00
36352;DHT22;22382;44.768;17.206;2024-03-29T09:06:38;23.10;59.70
36352;DHT22;22382;44.768;17.206;2024-03-29T09:09:05;23.00;60.10
36352;DHT22;22382;44.768;17.206;2024-03-29T09:11:31;23.20;60.80
36352;DHT22;22382;44.768;17.206;2024-03-29T09:13:58;23.40;60.30
36352;DHT22;22382;44.768;17.206;2024-03-29T09:16:27;23.30;59.80
36352;DHT22;22382;44.768;17.206;2024-03-29T09:18:57;23.40;59.40
36352;DHT22;22382;44.768;17.206;2024-03-29T09:21:23;23.50;59.50
36352;DHT22;22382;44.768;17.206;2024-03-29T09:23:49;23.50;60.20
36352;DHT22;22382;44.768;17.206;2024-03-29T09:26:18;23.40;59.50
36352;DHT22;22382;44.768;17.206;2024-03-29T09:28:45;23.30;60.20
36352;DHT22;22382;44.768;17.206;2024-03-29T09:31:11;23.20;60.00
36352;DHT22;22382;44.768;17.206;2024-03-29T09:33:37;23.20;60.40
36352;DHT22;22382;44.768;17.206;2024-03-29T09:36:03;23.50;59.70
36352;DHT22;22382;44.768;17.206;2024-03-29T09:38:30;23.50;59.70
36352;DHT22;22382;44.768;17.206;2024-03-29T09:41:10;23.80;59.40
36352;DHT22;22382;44.768;17.206;2024-03-29T09:43:38;23.80;60.70
36352;DHT22;22382;44.768;17.206;2024-03-29T09:46:06;23.90;59.10
36352;DHT22;22382;44.768;17.206;2024-03-29T09:48:34;24.00;58.60
36352;DHT22;22382;44.768;17.206;2024-03-29T09:51:06;23.80;59.00
36352;DHT22;22382;44.768;17.206;2024-03-29T09:53:37;23.60;58.70
36352;DHT22;22382;44.768;17.206;2024-03-29T09:56:07;23.60;59.70
36352;DHT22;22382;44.768;17.206;2024-03-29T09:58:35;23.80;59.70
36352;DHT22;22382;44.768;17.206;2024-03-29T10:01:03;23.80;59.40
36352;DHT22;22382;44.768;17.206;2024-03-29T10:03:30;23.70;59.90
36352;DHT22;22382;44.768;17.206;2024-03-29T10:05:57;23.80;58.90
36352;DHT22;22382;44.768;17.206;2024-03-29T10:08:28;23.70;58.70
36352;DHT22;22382;44.768;17.206;2024-03-29T10:10:56;23.50;59.20
36352;DHT22;22382;44.768;17.206;2024-03-29T10:13:23;23.30;59.50
36352;DHT22;22382;44.768;17.206;2024-03-29T10:15:53;23.50;59.10
36352;DHT22;22382;44.768;17.206;2024-03-29T10:18:26;23.60;58.70
36352;DHT22;22382;44.768;17.206;2024-03-29T10:21:06;23.80;57.60
36352;DHT22;22382;44.768;17.206;2024-03-29T10:23:36;23.60;58.50
36352;DHT22;22382;44.768;17.206;2024-03-29T10:26:02;23.80;58.00
36352;DHT22;22382;44.768;17.206;2024-03-29T10:28:33;23.80;57.70
36352;DHT22;22382;44.768;17.206;2024-03-29T10:31:01;24.00;57.70
36352;DHT22;22382;44.768;17.206;2024-03-29T10:33:32;24.10;57.30
36352;DHT22;22382;44.768;17.206;2024-03-29T10:35:59;24.40;58.10
36352;DHT22;22382;44.768;17.206;2024-03-29T10:38:27;24.50;57.30
36352;DHT22;22382;44.768;17.206;2024-03-29T10:40:53;24.40;56.80
36352;DHT22;22382;44.768;17.206;2024-03-29T10:43:20;24.10;57.10
36352;DHT22;22382;44.768;17.206;2024-03-29T10:45:48;24.00;56.90
36352;DHT22;22382;44.768;17.206;2024-03-29T10:48:16;23.90;57.30
36352;DHT22;22382;44.768;17.206;2024-03-29T10:50:45;23.80;57.90
36352;DHT22;22382;44.768;17.206;2024-03-29T10:53:14;23.90;57.90
36352;DHT22;22382;44.768;17.206;2024-03-29T10:55:42;24.00;58.10
36352;DHT22;22382;44.768;17.206;2024-03-29T10:58:11;24.00;57.00
36352;DHT22;22382;44.768;17.206;2024-03-29T11:00:46;24.10;57.40
36352;DHT22;22382;44.768;17.206;2024-03-29T11:03:58;24.00;57.40
36352;DHT22;22382;44.768;17.206;2024-03-29T11:06:18;23.90;57.40
36352;DHT22;22382;44.768;17.206;2024-03-29T11:08:48;24.00;57.40
36352;DHT22;22382;44.768;17.206;2024-03-29T11:11:17;24.10;57.20
36352;DHT22;22382;44.768;17.206;2024-03-29T11:13:45;23.80;57.20
36352;DHT22;22382;44.768;17.206;2024-03-29T11:16:14;23.90;57.80
36352;DHT22;22382;44.768;17.206;2024-03-29T11:18:43;23.90;57.20
36352;DHT22;22382;44.768;17.206;2024-03-29T11:21:10;23.70;57.40
36352;DHT22;22382;44.768;17.206;2024-03-29T11:23:37;23.70;57.50
36352;DHT22;22382;44.768;17.206;2024-03-29T11:26:05;23.60;58.10
36352;DHT22;22382;44.768;17.206;2024-03-29T11:28:33;23.60;58.30
36352;DHT22;22382;44.768;17.206;2024-03-29T11:31:05;23.70;59.30
36352;DHT22;22382;44.768;17.206;2024-03-29T11:33:33;23.90;57.70
36352;DHT22;22382;44.768;17.206;2024-03-29T11:36:21;23.80;57.00
36352;DHT22;22382;44.768;17.206;2024-03-29T11:38:55;24.00;56.60
36352;DHT22;22382;44.768;17.206;2024-03-29T11:41:24;24.10;57.70
36352;DHT22;22382;44.768;17.206;2024-03-29T11:43:51;24.10;56.90
36352;DHT22;22382;44.768;17.206;2024-03-29T11:46:18;24.10;56.40
36352;DHT22;22382;44.768;17.206;2024-03-29T11:48:45;24.00;57.00
36352;DHT22;22382;44.768;17.206;2024-03-29T11:51:16;24.10;57.80
36352;DHT22;22382;44.768;17.206;2024-03-29T11:53:44;24.10;56.40
36352;DHT22;22382;44.768;17.206;2024-03-29T11:56:10;24.10;56.90
36352;DHT22;22382;44.768;17.206;2024-03-29T11:58:40;24.20;57.00
36352;DHT22;22382;44.768;17.206;2024-03-29T12:01:07;24.20;56.50
36352;DHT22;22382;44.768;17.206;2024-03-29T12:03:39;24.30;56.90
36352;DHT22;22382;44.768;17.206;2024-03-29T12:06:08;24.40;57.20
36352;DHT22;22382;44.768;17.206;2024-03-29T12:08:40;24.60;56.60
36352;DHT22;22382;44.768;17.206;2024-03-29T12:11:08;24.80;56.20
36352;DHT22;22382;44.768;17.206;2024-03-29T12:13:35;24.80;55.80
36352;DHT22;22382;44.768;17.206;2024-03-29T12:16:02;24.90;55.80
36352;DHT22;22382;44.768;17.206;2024-03-29T12:18:29;25.00;55.40
36352;DHT22;22382;44.768;17.206;2024-03-29T12:20:58;25.20;55.90
36352;DHT22;22382;44.768;17.206;2024-03-29T12:23:24;25.80;55.00
36352;DHT22;22382;44.768;17.206;2024-03-29T12:25:52;26.10;54.90
36352;DHT22;22382;44.768;17.206;2024-03-29T12:28:18;26.40;55.80
36352;DHT22;22382;44.768;17.206;2024-03-29T12:30:46;26.60;54.40
36352;DHT22;22382;44.768;17.206;2024-03-29T12:33:14;26.60;53.80
36352;DHT22;22382;44.768;17.206;2024-03-29T12:35:42;26.30;54.30
36352;DHT22;22382;44.768;17.206;2024-03-29T12:38:11;26.20;55.40
36352;DHT22;22382;44.768;17.206;2024-03-29T12:40:38;26.20;54.80
36352;DHT22;22382;44.768;17.206;2024-03-29T12:43:06;26.20;53.10
36352;DHT22;22382;44.768;17.206;2024-03-29T12:45:36;25.90;54.00
36352;DHT22;22382;44.768;17.206;2024-03-29T12:48:16;25.70;53.80
36352;DHT22;22382;44.768;17.206;2024-03-29T12:50:44;25.90;53.40
36352;DHT22;22382;44.768;17.206;2024-03-29T12:53:12;25.70;53.40
36352;DHT22;22382;44.768;17.206;2024-03-29T12:55:40;25.50;53.30
36352;DHT22;22382;44.768;17.206;2024-03-29T12:58:11;25.50;54.20
36352;DHT22;22382;44.768;17.206;2024-03-29T13:00:40;25.30;55.40
36352;DHT22;22382;44.768;17.206;2024-03-29T13:03:07;25.20;55.60
36352;DHT22;22382;44.768;17.206;2024-03-29T13:05:38;25.10;56.20
36352;DHT22;22382;44.768;17.206;2024-03-29T13:08:08;25.00;56.10
36352;DHT22;22382;44.768;17.206;2024-03-29T13:10:37;24.90;55.10
36352;DHT22;22382;44.768;17.206;2024-03-29T13:13:03;24.70;54.80
36352;DHT22;22382;44.768;17.206;2024-03-29T13:15:33;24.60;55.20
36352;DHT22;22382;44.768;17.206;2024-03-29T13:17:59;24.60;55.90
36352;DHT22;22382;44.768;17.206;2024-03-29T13:20:26;24.50;55.50
36352;DHT22;22382;44.768;17.206;2024-03-29T13:22:52;24.60;54.50
36352;DHT22;22382;44.768;17.206;2024-03-29T13:25:21;24.50;54.80
36352;DHT22;22382;44.768;17.206;2024-03-29T13:27:52;24.40;55.00
36352;DHT22;22382;44.768;17.206;2024-03-29T13:30:21;24.60;54.50
36352;DHT22;22382;44.768;17.206;2024-03-29T13:32:48;24.70;54.30
36352;DHT22;22382;44.768;17.206;2024-03-29T13:35:14;24.90;53.90
36352;DHT22;22382;44.768;17.206;2024-03-29T13:37:44;25.00;54.90
36352;DHT22;22382;44.768;17.206;2024-03-29T13:40:22;25.20;53.20
36352;DHT22;22382;44.768;17.206;2024-03-29T13:42:48;25.50;53.20
36352;DHT22;22382;44.768;17.206;2024-03-29T13:45:15;25.30;53.50
36352;DHT22;22382;44.768;17.206;2024-03-29T13:47:42;25.60;53.90
36352;DHT22;22382;44.768;17.206;2024-03-29T13:50:10;25.40;53.50
36352;DHT22;22382;44.768;17.206;2024-03-29T13:52:37;25.30;55.10
36352;DHT22;22382;44.768;17.206;2024-03-29T13:55:04;25.00;53.80
36352;DHT22;22382;44.768;17.206;2024-03-29T13:57:31;24.70;53.70
36352;DHT22;22382;44.768;17.206;2024-03-29T13:59:58;24.90;53.80
36352;DHT22;22382;44.768;17.206;2024-03-29T14:02:25;25.10;53.50
36352;DHT22;22382;44.768;17.206;2024-03-29T14:04:55;25.40;54.60
36352;DHT22;22382;44.768;17.206;2024-03-29T14:07:22;25.70;54.80
36352;DHT22;22382;44.768;17.206;2024-03-29T14:09:50;25.90;54.00
36352;DHT22;22382;44.768;17.206;2024-03-29T14:12:17;25.90;53.30
36352;DHT22;22382;44.768;17.206;2024-03-29T14:14:47;25.90;52.90
36352;DHT22;22382;44.768;17.206;2024-03-29T14:17:16;25.70;53.10
36352;DHT22;22382;44.768;17.206;2024-03-29T14:19:43;25.80;52.10
36352;DHT22;22382;44.768;17.206;2024-03-29T14:22:10;25.60;52.10
36352;DHT22;22382;44.768;17.206;2024-03-29T14:24:38;25.40;52.20
36352;DHT22;22382;44.768;17.206;2024-03-29T14:27:06;25.20;52.60
36352;DHT22;22382;44.768;17.206;2024-03-29T14:29:33;24.90;52.80
36352;DHT22;22382;44.768;17.206;2024-03-29T14:31:59;24.80;54.00
36352;DHT22;22382;44.768;17.206;2024-03-29T14:34:27;25.00;53.70
36352;DHT22;22382;44.768;17.206;2024-03-29T14:36:53;25.00;53.50
36352;DHT22;22382;44.768;17.206;2024-03-29T14:39:20;25.20;53.60
36352;DHT22;22382;44.768;17.206;2024-03-29T14:41:50;25.20;53.80
36352;DHT22;22382;44.768;17.206;2024-03-29T14:44:18;25.30;53.50
36352;DHT22;22382;44.768;17.206;2024-03-29T14:46:47;25.30;52.60
36352;DHT22;22382;44.768;17.206;2024-03-29T14:49:13;25.20;52.20
36352;DHT22;22382;44.768;17.206;2024-03-29T14:51:43;25.20;52.70
36352;DHT22;22382;44.768;17.206;2024-03-29T14:54:09;25.50;52.50
36352;DHT22;22382;44.768;17.206;2024-03-29T14:56:36;25.60;52.10
36352;DHT22;22382;44.768;17.206;2024-03-29T14:59:06;25.60;52.80
36352;DHT22;22382;44.768;17.206;2024-03-29T15:01:36;25.60;52.00
36352;DHT22;22382;44.768;17.206;2024-03-29T15:04:02;25.50;52.00
36352;DHT22;22382;44.768;17.206;2024-03-29T15:06:29;25.10;52.60
36352;DHT22;22382;44.768;17.206;2024-03-29T15:08:56;24.90;53.70
36352;DHT22;22382;44.768;17.206;2024-03-29T15:11:24;24.80;53.40
36352;DHT22;22382;44.768;17.206;2024-03-29T15:13:50;24.80;53.30
36352;DHT22;22382;44.768;17.206;2024-03-29T15:16:17;24.70;53.30
36352;DHT22;22382;44.768;17.206;2024-03-29T15:18:44;24.70;54.80